Weymouth, MA (02188)

7:07 AM EST on December 22, 2014 (GMT -0500)
Weymouth, MA | Change Station
CLOSE
Current Station
Personal Weather Station
Location: Weymouth, MA
Elevation: 118 ft
Nearby Weather Stations

Elev 118 ft 42.21 °N, 70.95 °W | Updated 3 minutes ago

Overcast
Overcast
33.4 °F
Feels Like 33 °F
N
2.2
Wind Variable Wind from North

Today
High -- | Low -- °F
--% Chance of Precip.
Yesterday
High -- | Low -- °F
Precip. -- in
7:09 AM 4:15 PM
New Moon, 0% visible
Pressure 30.38 in
Visibility 10.0 miles
Clouds Scattered Clouds 2700 ft
Mostly Cloudy 5000 ft
Windchill 33 °F
Dew Point 31 °F
Humidity 92%
Rainfall 0.00 in
Snow Depth Not available.
UV 0 out of 12
Pollen .10 out of 12
Air Quality Not available.
Flu Activity Not available.
METAR KBOS 221154Z 34004KT 10SM SCT027 BKN050 01/M03 A3039 RMK AO2 SLP288 T00061028 10011 20006 51011

More Conditions Fewer Conditions

Pressure 30.38 in
Visibility 10.0 miles
Clouds Scattered Clouds 2700 ft
Mostly Cloudy 5000 ft
Windchill 33 °F
Dew Point 31 °F
Humidity 92%
Rainfall 0.00 in
Snow Depth Not available.
UV 0 out of 12
Pollen .10 out of 12
Air Quality Not available.
Flu Activity Not available.
METAR KBOS 221154Z 34004KT 10SM SCT027 BKN050 01/M03 A3039 RMK AO2 SLP288 T00061028 10011 20006 51011

More Conditions Fewer Conditions

10-Day Weather Forecast

Almanac

Astronomy

Dec. 22, 2014 Rise Set
Actual Time
Civil Twilight
Nautical Twilight
Astronomical Twilight
Moon
Length of Visible Light
Length of Day
Tomorrow will be .
, % of the Moon is Illuminated

Today's Extremes

State Highs State Lows

Community

WunderPhotos

Upload Photos

1,779,592 photos uploaded!

WunderBlogs® & News

Nearby

Air Quality

  Air Quality AQ Index Pollutant
Not available.

Snow Depth

Station Depth Elevation

Earthquake Activity

City Distance Mag. Time & Date
Minimum magnitude displayed is 2.5.

Coastal Water Temperatures

Place Temperature

Nearby Weather Stations